createdAt,value
2018-11-21T00:01:08.158Z,2.60
2018-11-21T00:03:55.897Z,2.70
2018-11-21T00:12:32.386Z,2.90
2018-11-21T00:15:20.105Z,3.00
2018-11-21T00:18:07.877Z,3.10
2018-11-21T00:20:55.651Z,3.10
2018-11-21T00:23:43.408Z,3.20
2018-11-21T00:26:31.140Z,3.20
2018-11-21T00:29:18.900Z,3.30
2018-11-21T00:32:11.525Z,3.30
2018-11-21T00:34:59.300Z,3.30
2018-11-21T00:40:53.957Z,3.30
2018-11-21T00:43:41.689Z,3.20
2018-11-21T00:49:23.597Z,3.10
2018-11-21T00:52:11.515Z,3.00
2018-11-21T00:54:59.566Z,3.00
2018-11-21T00:57:47.286Z,3.00
2018-11-21T01:00:35.421Z,2.90
2018-11-21T01:03:23.151Z,2.90
2018-11-21T01:06:10.914Z,3.00
2018-11-21T01:08:58.691Z,3.00
2018-11-21T01:11:46.451Z,3.00
2018-11-21T01:14:34.181Z,3.00
2018-11-21T01:17:21.957Z,3.00
2018-11-21T01:20:09.689Z,3.10
2018-11-21T01:22:57.508Z,3.10
2018-11-21T01:25:45.242Z,3.20
2018-11-21T01:28:26.155Z,3.20
2018-11-21T01:31:06.728Z,3.30
2018-11-21T01:33:47.383Z,3.20
2018-11-21T01:36:28.165Z,3.30
2018-11-21T01:39:08.396Z,3.30
2018-11-21T01:41:48.780Z,3.30
2018-11-21T01:44:29.473Z,3.40
2018-11-21T01:47:10.124Z,3.40
2018-11-21T01:49:51.077Z,3.30
2018-11-21T01:52:32.091Z,3.30
2018-11-21T01:55:12.783Z,3.30
2018-11-21T01:57:53.680Z,3.30
2018-11-21T02:00:34.764Z,3.40
2018-11-21T02:03:15.804Z,3.40
2018-11-21T02:05:56.172Z,3.40
2018-11-21T02:08:36.460Z,3.40
2018-11-21T02:11:17.549Z,3.40
2018-11-21T02:13:58.628Z,3.40
2018-11-21T02:16:37.558Z,3.40
2018-11-21T02:19:25.374Z,3.50
2018-11-21T02:22:13.146Z,3.50
2018-11-21T02:25:00.871Z,3.50
2018-11-21T02:27:48.637Z,3.40
2018-11-21T02:30:36.374Z,3.40
2018-11-21T02:39:12.114Z,3.50
2018-11-21T02:41:59.911Z,3.50
2018-11-21T02:44:47.973Z,3.50
2018-11-21T02:47:35.699Z,3.50
2018-11-21T02:50:23.470Z,3.50
2018-11-21T02:53:11.201Z,3.60
2018-11-21T02:55:58.967Z,3.60
2018-11-21T02:58:46.694Z,3.60
2018-11-21T03:01:34.459Z,3.60
2018-11-21T03:04:22.196Z,3.60
2018-11-21T03:07:10.074Z,3.60
2018-11-21T03:13:05.581Z,3.70
2018-11-21T03:15:53.303Z,3.70
2018-11-21T03:18:41.110Z,3.70
2018-11-21T03:21:28.836Z,3.70
2018-11-21T03:24:16.607Z,3.70
2018-11-21T03:27:04.328Z,3.80
2018-11-21T03:29:52.086Z,3.70
2018-11-21T03:32:40.531Z,3.70
2018-11-21T03:35:28.290Z,3.70
2018-11-21T03:41:22.960Z,3.70
2018-11-21T03:44:10.736Z,3.70
2018-11-21T03:46:58.491Z,3.80
2018-11-21T03:49:46.223Z,3.80
2018-11-21T03:52:33.980Z,3.80
2018-11-21T03:55:21.709Z,3.80
2018-11-21T03:58:09.487Z,3.70
2018-11-21T04:00:57.208Z,3.80
2018-11-21T04:03:44.973Z,3.70
2018-11-21T04:06:32.712Z,3.70
2018-11-21T04:12:13.983Z,3.70
2018-11-21T04:15:01.781Z,3.70
2018-11-21T04:17:49.900Z,3.60
2018-11-21T04:23:44.550Z,3.70
2018-11-21T04:26:32.276Z,3.70
2018-11-21T04:32:14.541Z,3.60
2018-11-21T04:35:02.270Z,3.60
2018-11-21T04:37:50.332Z,3.60
2018-11-21T04:43:44.997Z,3.50
2018-11-21T04:46:32.724Z,3.60
2018-11-21T04:49:20.504Z,3.60
2018-11-21T04:52:08.240Z,3.70
2018-11-21T04:54:56.007Z,3.80
2018-11-21T04:57:43.738Z,3.80
2018-11-21T05:00:31.506Z,3.80
2018-11-21T05:03:19.931Z,3.80
2018-11-21T05:06:07.702Z,3.80
2018-11-21T05:12:03.495Z,3.80
2018-11-21T05:14:51.314Z,3.70
2018-11-21T05:17:39.157Z,3.70
2018-11-21T05:20:26.896Z,3.70
2018-11-21T05:23:14.663Z,3.80
2018-11-21T05:26:02.435Z,3.80
2018-11-21T05:31:43.856Z,3.70
2018-11-21T05:34:31.877Z,3.60
2018-11-21T05:37:19.643Z,3.60
2018-11-21T05:40:08.074Z,3.60
2018-11-21T05:48:44.301Z,3.60
2018-11-21T05:54:39.358Z,3.50
2018-11-21T05:57:27.186Z,3.50
2018-11-21T06:00:15.184Z,3.40
2018-11-21T06:03:03.098Z,3.30
2018-11-21T06:05:50.852Z,3.30
2018-11-21T06:08:38.583Z,3.40
2018-11-21T06:11:26.438Z,3.20
2018-11-21T06:14:14.181Z,3.20
2018-11-21T06:19:55.401Z,3.20
2018-11-21T06:22:43.743Z,3.20
2018-11-21T06:25:31.647Z,3.20
2018-11-21T06:28:19.376Z,3.20
2018-11-21T06:31:07.137Z,3.20
2018-11-21T06:33:54.879Z,3.30
2018-11-21T06:36:42.707Z,3.20
2018-11-21T06:39:30.738Z,3.20
2018-11-21T06:42:18.570Z,3.10
2018-11-21T06:45:07.305Z,3.20
2018-11-21T06:47:55.239Z,3.10
2018-11-21T06:50:43.329Z,3.20
2018-11-21T06:53:31.092Z,3.20
2018-11-21T06:56:18.898Z,3.20
2018-11-21T06:59:06.663Z,3.30
2018-11-21T07:01:54.478Z,3.20
2018-11-21T07:04:42.235Z,3.30
2018-11-21T07:07:29.966Z,3.20
2018-11-21T07:10:17.734Z,3.30
2018-11-21T07:13:11.011Z,3.20
2018-11-21T07:15:53.260Z,3.10
2018-11-21T07:18:41.310Z,3.10
2018-11-21T07:21:29.143Z,3.20
2018-11-21T07:24:16.870Z,3.20
2018-11-21T07:27:04.639Z,3.30
2018-11-21T07:29:52.648Z,3.30
2018-11-21T07:32:40.742Z,3.30
2018-11-21T07:38:36.310Z,3.30
2018-11-21T07:41:24.044Z,3.30
2018-11-21T07:44:11.863Z,3.40
2018-11-21T07:46:59.649Z,3.50
2018-11-21T07:52:41.071Z,3.60
2018-11-21T07:55:28.827Z,3.70
2018-11-21T07:58:18.585Z,3.70
2018-11-21T08:01:19.196Z,3.60
2018-11-21T08:04:10.624Z,3.50
2018-11-21T08:07:02.371Z,3.60
2018-11-21T08:10:09.233Z,3.60
2018-11-21T08:13:16.127Z,3.70
2018-11-21T08:16:22.975Z,3.60
2018-11-21T08:19:30.177Z,3.60
2018-11-21T08:22:37.018Z,3.60
2018-11-21T08:25:44.145Z,3.70
2018-11-21T08:28:32.002Z,3.70
2018-11-21T08:34:12.905Z,3.60
2018-11-21T08:37:00.682Z,3.50
2018-11-21T08:39:48.470Z,3.60
2018-11-21T08:51:17.771Z,3.60
2018-11-21T08:56:59.453Z,3.50
2018-11-21T09:02:40.683Z,3.60
2018-11-21T09:08:22.022Z,3.70
2018-11-21T09:14:02.931Z,3.60
2018-11-21T09:16:50.704Z,3.70
2018-11-21T09:19:38.436Z,3.60
2018-11-21T09:25:19.740Z,3.50
2018-11-21T09:31:00.918Z,3.60
2018-11-21T09:36:41.915Z,3.70
2018-11-21T09:42:24.019Z,3.80
2018-11-21T09:45:13.453Z,3.70
2018-11-21T09:53:49.628Z,3.90
2018-11-21T09:56:37.380Z,3.90
2018-11-21T10:02:38.537Z,4.00
2018-11-21T10:05:26.458Z,3.80
2018-11-21T10:08:52.665Z,3.90
2018-11-21T10:14:34.489Z,3.90
2018-11-21T10:20:15.197Z,3.90
2018-11-21T10:25:56.444Z,3.90
2018-11-21T10:31:39.438Z,4.00
2018-11-21T10:37:20.335Z,3.90
2018-11-21T10:40:08.360Z,4.00
2018-11-21T10:42:56.091Z,3.90
2018-11-21T10:45:43.914Z,4.00
2018-11-21T10:48:31.946Z,3.90
2018-11-21T10:51:19.795Z,4.10
2018-11-21T10:54:07.556Z,4.10
2018-11-21T10:59:48.554Z,4.10
2018-11-21T11:02:55.510Z,4.20
2018-11-21T11:06:02.353Z,4.10
2018-11-21T11:09:09.323Z,4.00
2018-11-21T11:12:16.179Z,3.90
2018-11-21T11:15:23.058Z,4.00
2018-11-21T11:18:19.611Z,4.20
2018-11-21T11:21:26.514Z,4.20
2018-11-21T11:24:33.354Z,4.20
2018-11-21T11:27:40.233Z,4.30
2018-11-21T11:30:47.116Z,4.30
2018-11-21T11:33:54.264Z,4.20
2018-11-21T11:37:01.121Z,4.30
2018-11-21T11:40:05.494Z,4.30
2018-11-21T11:43:12.348Z,4.30
2018-11-21T11:46:19.308Z,4.20
2018-11-21T11:49:26.158Z,4.30
2018-11-21T11:52:33.114Z,4.20
2018-11-21T11:55:39.971Z,4.20
2018-11-21T11:58:46.851Z,4.10
2018-11-21T12:01:53.813Z,4.20
2018-11-21T12:08:05.389Z,4.20
2018-11-21T12:11:04.658Z,4.20
2018-11-21T12:14:11.867Z,4.10
2018-11-21T12:17:18.738Z,4.10
2018-11-21T12:20:26.242Z,4.20
2018-11-21T12:23:33.095Z,4.20
2018-11-21T12:26:40.026Z,4.20
2018-11-21T12:29:46.878Z,4.10
2018-11-21T12:32:53.836Z,4.10
2018-11-21T12:36:00.691Z,4.20
2018-11-21T12:39:07.818Z,4.30
2018-11-21T12:42:07.385Z,4.20
2018-11-21T12:45:14.261Z,4.20
2018-11-21T12:48:21.178Z,4.20
2018-11-21T12:54:41.454Z,4.10
2018-11-21T12:57:48.408Z,4.30
2018-11-21T13:00:55.739Z,4.30
2018-11-21T13:06:58.599Z,4.40
2018-11-21T13:09:58.001Z,4.30
2018-11-21T13:12:58.015Z,4.20
2018-11-21T13:19:03.116Z,4.30
2018-11-21T13:22:03.022Z,4.30
